Terminal Aerodrome Forecast
Issued by NWS

Home | Current Version | Previous Version | Text Only | Print | Product List | Glossary On
Versions: 1 2 3 4 5 6 7 8 9 10 11 12 13 14 15
562
FTUS45 KABQ 090540
TAFTCC
TAF
KTCC 090540Z 0906/1006 18005KT P6SM OVC025
     FM090900 22015KT P6SM OVC015
     FM091600 23017G25KT P6SM SCT200
     FM100100 25010KT P6SM BKN200=

USA.gov is the U.S. government's official web portal to all federal, state and local government web resources and services.